createdAt,value
2023-11-23T00:00:11.903Z,4.33
2023-11-23T00:02:41.102Z,4.36
2023-11-23T00:05:11.198Z,4.41
2023-11-23T00:07:40.784Z,4.36
2023-11-23T00:10:12.189Z,4.52
2023-11-23T00:12:42.220Z,4.46
2023-11-23T00:15:11.121Z,4.42
2023-11-23T00:17:39.543Z,4.75
2023-11-23T00:20:10.317Z,4.78
2023-11-23T00:22:40.160Z,4.33
2023-11-23T00:25:13.307Z,4.22
2023-11-23T00:27:41.981Z,4.48
2023-11-23T00:30:11.036Z,4.46
2023-11-23T00:32:40.138Z,4.53
2023-11-23T00:35:09.345Z,4.33
2023-11-23T00:37:37.639Z,4.13
2023-11-23T00:40:08.527Z,4.04
2023-11-23T00:42:36.525Z,4.11
2023-11-23T00:45:05.941Z,4.24
2023-11-23T00:47:34.272Z,4.21
2023-11-23T00:50:03.500Z,4.48
2023-11-23T00:52:31.915Z,4.40
2023-11-23T00:55:00.446Z,4.41
2023-11-23T00:57:29.758Z,4.28
2023-11-23T00:59:57.718Z,4.09
2023-11-23T01:02:26.225Z,4.38
2023-11-23T01:04:54.040Z,4.48
2023-11-23T01:07:22.430Z,4.36
2023-11-23T01:09:50.663Z,4.41
2023-11-23T01:12:18.995Z,4.36
2023-11-23T01:14:49.064Z,3.91
2023-11-23T01:17:17.354Z,3.77
2023-11-23T01:19:46.438Z,4.10
2023-11-23T01:22:15.230Z,4.06
2023-11-23T01:24:43.430Z,4.28
2023-11-23T01:27:11.628Z,4.35
2023-11-23T01:29:39.649Z,4.17
2023-11-23T01:32:10.509Z,3.96
2023-11-23T01:34:38.963Z,3.89
2023-11-23T01:37:07.012Z,3.92
2023-11-23T01:39:35.291Z,3.86
2023-11-23T01:42:04.243Z,3.82
2023-11-23T01:44:32.611Z,3.83
2023-11-23T01:47:00.843Z,4.15
2023-11-23T01:49:30.556Z,4.26
2023-11-23T01:51:58.837Z,4.32
2023-11-23T01:54:27.294Z,4.46
2023-11-23T01:56:55.655Z,4.64
2023-11-23T01:59:24.178Z,4.46
2023-11-23T02:01:52.428Z,4.59
2023-11-23T02:04:20.635Z,4.34
2023-11-23T02:06:50.444Z,4.07
2023-11-23T02:09:19.163Z,4.13
2023-11-23T02:11:47.313Z,3.99
2023-11-23T02:14:15.656Z,4.08
2023-11-23T02:16:43.908Z,4.04
2023-11-23T02:19:12.521Z,4.15
2023-11-23T02:21:41.812Z,4.15
2023-11-23T02:24:12.868Z,4.17
2023-11-23T02:26:41.195Z,4.21
2023-11-23T02:29:09.443Z,4.05
2023-11-23T02:31:37.659Z,4.12
2023-11-23T02:34:05.785Z,4.06
2023-11-23T02:36:33.993Z,4.10
2023-11-23T02:39:02.350Z,4.01
2023-11-23T02:41:32.027Z,3.96
2023-11-23T02:44:00.405Z,3.96
2023-11-23T02:46:29.604Z,3.96
2023-11-23T02:48:57.657Z,4.00
2023-11-23T02:51:26.463Z,4.07
2023-11-23T02:53:54.890Z,4.22
2023-11-23T02:56:25.010Z,4.26
2023-11-23T02:58:55.541Z,4.21
2023-11-23T03:01:24.537Z,4.09
2023-11-23T03:03:56.223Z,4.10
2023-11-23T03:06:24.581Z,4.38
2023-11-23T03:08:53.097Z,4.40
2023-11-23T03:11:21.970Z,4.50
2023-11-23T03:13:50.891Z,4.49
2023-11-23T03:16:20.825Z,4.50
2023-11-23T03:18:49.432Z,4.41
2023-11-23T03:21:17.978Z,4.27
2023-11-23T03:23:47.086Z,4.46
2023-11-23T03:26:15.361Z,4.59
2023-11-23T03:28:43.691Z,4.59
2023-11-23T03:31:11.797Z,4.78
2023-11-23T03:33:42.602Z,4.81
2023-11-23T03:36:11.631Z,4.88
2023-11-23T03:38:39.628Z,4.86
2023-11-23T03:41:07.873Z,4.75
2023-11-23T03:43:36.221Z,4.82
2023-11-23T03:46:04.854Z,4.68
2023-11-23T03:48:33.236Z,4.69
2023-11-23T03:51:03.623Z,4.68
2023-11-23T03:53:31.683Z,4.64
2023-11-23T03:56:00.024Z,4.82
2023-11-23T03:58:28.623Z,4.83
2023-11-23T04:00:56.629Z,4.81
2023-11-23T04:03:24.924Z,4.73
2023-11-23T04:05:53.409Z,4.75
2023-11-23T04:08:24.759Z,4.64
2023-11-23T04:10:53.083Z,4.53
2023-11-23T04:13:21.105Z,4.61
2023-11-23T04:15:49.106Z,4.81
2023-11-23T04:18:17.240Z,4.87
2023-11-23T04:20:45.792Z,4.92
2023-11-23T04:23:14.942Z,4.80
2023-11-23T04:25:44.637Z,4.62
2023-11-23T04:28:13.029Z,4.65
2023-11-23T04:30:41.296Z,4.58
2023-11-23T04:33:09.433Z,4.75
2023-11-23T04:35:37.762Z,4.71
2023-11-23T04:38:06.046Z,4.95
2023-11-23T04:40:34.272Z,5.20
2023-11-23T04:43:03.834Z,5.02
2023-11-23T04:45:32.250Z,4.97
2023-11-23T04:48:00.661Z,5.04
2023-11-23T04:50:29.129Z,4.93
2023-11-23T04:52:58.412Z,5.01
2023-11-23T04:55:29.307Z,5.17
2023-11-23T04:57:58.154Z,5.15
2023-11-23T05:00:28.001Z,5.07
2023-11-23T05:02:56.360Z,5.08
2023-11-23T05:05:24.796Z,5.16
2023-11-23T05:07:52.849Z,5.04
2023-11-23T05:10:22.028Z,5.04
2023-11-23T05:12:52.581Z,5.01
2023-11-23T05:15:20.989Z,4.93
2023-11-23T05:17:50.533Z,4.83
2023-11-23T05:20:20.014Z,4.95
2023-11-23T05:22:48.241Z,5.00
2023-11-23T05:25:16.625Z,4.87
2023-11-23T05:27:44.656Z,4.93
2023-11-23T05:30:14.282Z,4.92
2023-11-23T05:32:42.666Z,5.08
2023-11-23T05:35:14.055Z,4.85
2023-11-23T05:37:42.208Z,4.69
2023-11-23T05:40:13.341Z,4.72
2023-11-23T05:42:47.924Z,4.64
2023-11-23T05:45:22.277Z,4.74
2023-11-23T05:47:50.596Z,4.87
2023-11-23T05:50:20.389Z,5.11
2023-11-23T05:52:48.554Z,4.99
2023-11-23T05:55:17.603Z,4.53
2023-11-23T05:57:45.888Z,4.59
2023-11-23T06:00:15.508Z,4.45
2023-11-23T06:02:44.086Z,4.33
2023-11-23T06:05:12.637Z,4.55
2023-11-23T06:07:42.245Z,4.50
2023-11-23T06:10:12.974Z,4.33
2023-11-23T06:12:41.592Z,4.40
2023-11-23T06:15:10.644Z,4.41
2023-11-23T06:17:39.057Z,4.43
2023-11-23T06:20:09.693Z,4.39
2023-11-23T06:22:37.798Z,4.38
2023-11-23T06:25:08.675Z,4.30
2023-11-23T06:27:37.099Z,4.16
2023-11-23T06:30:06.782Z,4.50
2023-11-23T06:32:34.992Z,4.45
2023-11-23T06:35:03.250Z,4.46
2023-11-23T06:37:31.494Z,4.41
2023-11-23T06:39:59.841Z,4.36
2023-11-23T06:42:29.200Z,4.52
2023-11-23T06:44:58.157Z,4.30
2023-11-23T06:47:26.508Z,4.46
2023-11-23T06:49:54.864Z,4.27
2023-11-23T06:52:23.169Z,4.43
2023-11-23T06:54:51.520Z,4.22
2023-11-23T06:57:20.123Z,4.21
2023-11-23T06:59:49.539Z,4.36
2023-11-23T07:02:17.948Z,4.20
2023-11-23T07:04:46.338Z,4.40
2023-11-23T07:07:14.379Z,4.22
2023-11-23T07:09:42.482Z,4.14
2023-11-23T07:12:11.375Z,4.42
2023-11-23T07:14:42.276Z,4.49
2023-11-23T07:17:11.818Z,4.31
2023-11-23T07:19:40.767Z,4.48
2023-11-23T07:22:08.734Z,4.43
2023-11-23T07:24:37.101Z,4.49
2023-11-23T07:27:05.856Z,4.52
2023-11-23T07:29:34.124Z,4.32
2023-11-23T07:32:02.351Z,4.49
2023-11-23T07:34:31.680Z,4.58
2023-11-23T07:36:59.942Z,4.65
2023-11-23T07:39:28.006Z,4.60
2023-11-23T07:41:56.209Z,4.44
2023-11-23T07:44:24.516Z,4.64
2023-11-23T07:46:52.822Z,4.53
2023-11-23T07:49:20.874Z,4.62
2023-11-23T07:51:50.714Z,4.81
2023-11-23T07:54:19.239Z,4.75
2023-11-23T07:56:47.852Z,4.74
2023-11-23T07:59:16.170Z,4.61
2023-11-23T08:01:44.496Z,4.53
2023-11-23T08:04:12.995Z,4.53
2023-11-23T08:06:41.154Z,4.71
2023-11-23T08:09:17.468Z,4.49
2023-11-23T08:11:45.559Z,4.62
2023-11-23T08:14:14.354Z,4.57
2023-11-23T08:16:42.558Z,4.56
2023-11-23T08:19:10.878Z,4.72
2023-11-23T08:21:41.179Z,4.62
2023-11-23T08:24:11.338Z,4.64
2023-11-23T08:26:39.376Z,4.76
2023-11-23T08:29:08.003Z,4.91
2023-11-23T08:31:36.545Z,4.86
2023-11-23T08:34:05.215Z,4.84
2023-11-23T08:36:33.262Z,4.73
2023-11-23T08:39:01.729Z,4.72
2023-11-23T08:41:31.994Z,4.63
2023-11-23T08:44:01.113Z,4.80
2023-11-23T08:46:29.305Z,5.00
2023-11-23T08:48:57.729Z,5.05
2023-11-23T08:51:26.075Z,5.16
2023-11-23T08:53:54.354Z,5.26
2023-11-23T08:56:23.856Z,5.46
2023-11-23T08:58:53.518Z,5.38
2023-11-23T09:01:21.568Z,5.36
2023-11-23T09:03:50.346Z,5.47
2023-11-23T09:06:19.870Z,5.41
2023-11-23T09:08:49.719Z,5.34
2023-11-23T09:11:18.198Z,5.57
2023-11-23T09:13:46.246Z,5.35
2023-11-23T09:16:16.025Z,5.68
2023-11-23T09:18:45.142Z,5.70
2023-11-23T09:21:13.527Z,5.84
2023-11-23T09:23:42.190Z,5.87
2023-11-23T09:26:10.306Z,5.84
2023-11-23T09:28:38.590Z,5.93
2023-11-23T09:31:09.653Z,6.09
2023-11-23T09:33:39.170Z,6.13
2023-11-23T09:36:07.639Z,6.18
2023-11-23T09:38:36.485Z,6.25
2023-11-23T09:41:09.194Z,6.24
2023-11-23T09:43:37.444Z,6.27
2023-11-23T09:46:07.480Z,6.30
2023-11-23T09:48:38.858Z,6.30
2023-11-23T09:51:12.105Z,6.38
2023-11-23T09:53:44.624Z,6.50
2023-11-23T09:56:12.768Z,6.60
2023-11-23T09:58:40.750Z,6.53
2023-11-23T10:01:10.306Z,6.56
2023-11-23T10:03:42.079Z,6.28
2023-11-23T10:06:12.544Z,6.14
2023-11-23T10:08:42.238Z,6.14
2023-11-23T10:11:10.524Z,6.19
2023-11-23T10:13:38.741Z,6.00
2023-11-23T10:16:07.396Z,5.91
2023-11-23T10:18:39.033Z,5.83
2023-11-23T10:21:07.522Z,5.79
2023-11-23T10:23:36.970Z,5.74
2023-11-23T10:26:05.026Z,5.76
2023-11-23T10:28:33.095Z,5.83
2023-11-23T10:31:05.379Z,5.89
2023-11-23T10:33:36.639Z,5.84
2023-11-23T10:36:06.581Z,5.67
2023-11-23T10:38:44.059Z,5.85
2023-11-23T10:41:15.810Z,5.92
2023-11-23T10:43:46.809Z,5.93
2023-11-23T10:46:15.596Z,5.91
2023-11-23T10:48:46.096Z,5.97
2023-11-23T10:51:17.509Z,6.05
2023-11-23T10:53:47.391Z,6.08
2023-11-23T10:56:20.326Z,6.06
2023-11-23T10:58:51.732Z,6.06
2023-11-23T11:01:23.659Z,6.07
2023-11-23T11:03:52.796Z,6.16
2023-11-23T11:06:22.927Z,6.16
2023-11-23T11:08:53.080Z,6.09
2023-11-23T11:11:23.544Z,6.07
2023-11-23T11:14:00.432Z,6.29
2023-11-23T11:16:34.843Z,6.32
2023-11-23T11:19:08.010Z,6.34
2023-11-23T11:21:43.787Z,6.34
2023-11-23T11:24:20.838Z,6.51
2023-11-23T11:26:50.331Z,6.54
2023-11-23T11:29:19.377Z,6.50
2023-11-23T11:31:50.358Z,6.61
2023-11-23T11:34:20.545Z,6.57
2023-11-23T11:36:53.113Z,6.69
2023-11-23T11:39:23.493Z,6.72
2023-11-23T11:42:00.558Z,6.66
2023-11-23T11:44:30.281Z,6.76
2023-11-23T11:46:58.562Z,6.71
2023-11-23T11:49:26.892Z,6.77
2023-11-23T11:51:55.593Z,6.79
2023-11-23T11:54:26.834Z,6.84
2023-11-23T11:56:55.298Z,6.86
2023-11-23T11:59:26.174Z,6.91
2023-11-23T12:01:55.064Z,7.01
2023-11-23T12:04:23.406Z,7.07
2023-11-23T12:06:51.791Z,7.13
2023-11-23T12:09:31.041Z,7.19
2023-11-23T12:12:11.450Z,7.29
2023-11-23T12:14:40.163Z,7.22
2023-11-23T12:17:11.600Z,7.21
2023-11-23T12:19:50.800Z,7.30
2023-11-23T12:22:22.163Z,7.25
2023-11-23T12:24:50.305Z,7.37
2023-11-23T12:27:22.145Z,7.42
2023-11-23T12:29:50.782Z,7.35
2023-11-23T12:32:18.968Z,7.47
2023-11-23T12:34:47.030Z,7.47
2023-11-23T12:37:15.828Z,7.58
2023-11-23T12:39:43.987Z,7.52
2023-11-23T12:42:12.320Z,7.64
2023-11-23T12:44:42.140Z,7.55
2023-11-23T12:47:10.535Z,7.56
2023-11-23T12:49:38.655Z,7.57
2023-11-23T12:52:08.966Z,7.67
2023-11-23T12:54:37.245Z,7.61
2023-11-23T12:57:05.931Z,7.61
2023-11-23T12:59:34.195Z,7.57
2023-11-23T13:02:22.512Z,7.71
2023-11-23T13:04:50.839Z,7.76
2023-11-23T13:07:19.167Z,7.75
2023-11-23T13:09:49.720Z,7.88
2023-11-23T13:12:19.110Z,7.78
2023-11-23T13:14:48.725Z,7.83
2023-11-23T13:17:19.880Z,7.77
2023-11-23T13:19:49.202Z,7.91
2023-11-23T13:22:18.567Z,7.91
2023-11-23T13:24:48.551Z,7.99
2023-11-23T13:27:18.281Z,7.92
2023-11-23T13:29:48.642Z,7.98
2023-11-23T13:32:20.407Z,8.07
2023-11-23T13:34:50.630Z,8.11
2023-11-23T13:37:20.584Z,8.01
2023-11-23T13:39:49.535Z,8.05
2023-11-23T13:42:18.750Z,8.14
2023-11-23T13:44:47.872Z,8.13
2023-11-23T13:47:16.158Z,8.22
2023-11-23T13:49:46.104Z,8.16
2023-11-23T13:52:14.722Z,8.10
2023-11-23T13:54:52.037Z,8.13
2023-11-23T13:57:20.750Z,8.14
2023-11-23T13:59:50.577Z,8.09
2023-11-23T14:02:20.995Z,8.03
2023-11-23T14:04:50.910Z,7.97
2023-11-23T14:07:19.685Z,7.94
2023-11-23T14:09:48.129Z,7.94
2023-11-23T14:12:17.407Z,7.92
2023-11-23T14:14:49.128Z,7.94
2023-11-23T14:17:19.579Z,7.89
2023-11-23T14:19:52.554Z,7.92
2023-11-23T14:22:22.120Z,7.86
2023-11-23T14:24:51.649Z,7.90
2023-11-23T14:27:21.780Z,7.79
2023-11-23T14:29:51.691Z,7.91
2023-11-23T14:32:21.527Z,7.86
2023-11-23T14:34:53.144Z,7.87
2023-11-23T14:37:24.259Z,7.81
2023-11-23T14:39:53.621Z,7.72
2023-11-23T14:42:23.052Z,7.63
2023-11-23T14:44:54.949Z,7.61
2023-11-23T14:47:28.628Z,7.56
2023-11-23T14:49:58.779Z,7.64
2023-11-23T14:52:29.394Z,7.71
2023-11-23T14:55:01.682Z,7.67
2023-11-23T14:57:32.227Z,7.62
2023-11-23T15:00:04.409Z,7.72
2023-11-23T15:02:34.686Z,7.75
2023-11-23T15:05:06.951Z,7.63
2023-11-23T15:07:40.921Z,7.64
2023-11-23T15:10:14.013Z,7.60
2023-11-23T15:12:44.715Z,7.60
2023-11-23T15:15:14.758Z,7.62
2023-11-23T15:17:44.301Z,7.70
2023-11-23T15:20:16.145Z,7.71
2023-11-23T15:22:45.547Z,7.61
2023-11-23T15:25:14.841Z,7.58
2023-11-23T15:27:47.000Z,7.58
2023-11-23T15:30:17.400Z,7.53
2023-11-23T15:32:46.966Z,7.51
2023-11-23T15:35:18.104Z,7.48
2023-11-23T15:37:50.070Z,7.45
2023-11-23T15:40:20.882Z,7.49
2023-11-23T15:42:52.401Z,7.48
2023-11-23T15:45:22.192Z,7.47
2023-11-23T15:47:51.795Z,7.43
2023-11-23T15:50:26.626Z,7.41
2023-11-23T15:52:58.370Z,7.35
2023-11-23T15:55:29.037Z,7.37
2023-11-23T15:57:58.429Z,7.31
2023-11-23T16:00:28.596Z,7.35
2023-11-23T16:02:59.004Z,7.32
2023-11-23T16:05:31.514Z,7.31
2023-11-23T16:08:01.571Z,7.31
2023-11-23T16:10:31.853Z,7.26
2023-11-23T16:13:01.886Z,7.38
2023-11-23T16:15:33.472Z,7.41
2023-11-23T16:18:07.279Z,7.32
2023-11-23T16:20:39.185Z,7.33
2023-11-23T16:23:10.787Z,7.28
2023-11-23T16:25:41.101Z,7.19
2023-11-23T16:28:10.629Z,7.15
2023-11-23T16:30:41.460Z,7.20
2023-11-23T16:33:11.658Z,7.21
2023-11-23T16:35:43.268Z,7.13
2023-11-23T16:38:12.985Z,7.07
2023-11-23T16:40:43.051Z,7.09
2023-11-23T16:43:13.104Z,7.14
2023-11-23T16:45:43.109Z,7.06
2023-11-23T16:48:13.267Z,7.16
2023-11-23T16:50:50.298Z,7.14
2023-11-23T16:53:20.940Z,7.18
2023-11-23T16:55:52.699Z,7.16
2023-11-23T16:58:22.042Z,7.02
2023-11-23T17:00:51.893Z,7.16
2023-11-23T17:03:22.191Z,7.09
2023-11-23T17:05:54.954Z,7.18
2023-11-23T17:08:25.583Z,7.03
2023-11-23T17:10:55.968Z,7.08
2023-11-23T17:13:26.540Z,7.10
2023-11-23T17:15:56.778Z,7.00
2023-11-23T17:18:27.910Z,6.88
2023-11-23T17:20:59.692Z,6.96
2023-11-23T17:23:31.591Z,6.94
2023-11-23T17:26:01.095Z,6.96
2023-11-23T17:28:31.474Z,6.99
2023-11-23T17:31:01.768Z,6.92
2023-11-23T17:33:33.907Z,6.96
2023-11-23T17:36:06.528Z,6.89
2023-11-23T17:38:37.172Z,6.78
2023-11-23T17:41:10.758Z,6.69
2023-11-23T17:43:41.609Z,6.70
2023-11-23T17:46:11.420Z,6.66
2023-11-23T17:48:41.589Z,6.63
2023-11-23T17:51:14.715Z,6.57
2023-11-23T17:53:44.940Z,6.68
2023-11-23T17:56:16.569Z,6.55
2023-11-23T17:58:48.736Z,6.37
2023-11-23T18:01:20.997Z,6.42
2023-11-23T18:03:50.686Z,6.32
2023-11-23T18:06:22.384Z,6.42
2023-11-23T18:08:52.771Z,6.41
2023-11-23T18:11:22.967Z,6.39
2023-11-23T18:13:54.198Z,6.44
2023-11-23T18:16:23.329Z,6.41
2023-11-23T18:18:54.123Z,6.35
2023-11-23T18:21:25.729Z,6.36
2023-11-23T18:23:57.647Z,6.25
2023-11-23T18:26:29.346Z,6.26
2023-11-23T18:28:59.629Z,6.34
2023-11-23T18:31:33.730Z,6.35
2023-11-23T18:34:05.837Z,6.39
2023-11-23T18:36:39.183Z,6.43
2023-11-23T18:39:14.819Z,6.35
2023-11-23T18:41:45.154Z,6.37
2023-11-23T18:44:15.895Z,6.22
2023-11-23T18:46:47.928Z,6.33
2023-11-23T18:49:20.580Z,6.32
2023-11-23T18:51:52.770Z,6.30
2023-11-23T18:54:25.616Z,6.23
2023-11-23T18:56:56.956Z,6.15
2023-11-23T18:59:30.101Z,6.16
2023-11-23T19:02:01.475Z,6.18
2023-11-23T19:04:32.026Z,6.38
2023-11-23T19:07:03.351Z,6.36
2023-11-23T19:09:34.552Z,6.35
2023-11-23T19:12:06.238Z,6.41
2023-11-23T19:14:35.903Z,6.32
2023-11-23T19:17:06.300Z,6.28
2023-11-23T19:19:38.842Z,6.21
2023-11-23T19:22:27.537Z,6.32
2023-11-23T19:24:57.860Z,6.21
2023-11-23T19:27:29.329Z,6.17
2023-11-23T19:30:01.863Z,6.23
2023-11-23T19:32:34.167Z,6.18
2023-11-23T19:35:10.758Z,6.13
2023-11-23T19:37:45.089Z,6.13
2023-11-23T19:40:19.869Z,6.15
2023-11-23T19:42:52.798Z,6.19
2023-11-23T19:45:25.514Z,6.18
2023-11-23T19:47:57.682Z,6.20
2023-11-23T19:50:30.714Z,6.08
2023-11-23T19:53:05.880Z,6.11
2023-11-23T19:55:36.596Z,6.12
2023-11-23T19:58:08.141Z,5.91
2023-11-23T20:00:40.685Z,5.97
2023-11-23T20:03:12.392Z,6.01
2023-11-23T20:05:43.168Z,6.07
2023-11-23T20:08:16.209Z,5.96
2023-11-23T20:10:47.236Z,5.90
2023-11-23T20:13:17.968Z,5.92
2023-11-23T20:15:49.796Z,5.86
2023-11-23T20:18:21.287Z,5.78
2023-11-23T20:20:53.990Z,5.84
2023-11-23T20:23:25.238Z,6.05
2023-11-23T20:25:55.476Z,5.92
2023-11-23T20:28:26.242Z,5.85
2023-11-23T20:30:56.534Z,5.96
2023-11-23T20:33:26.935Z,5.93
2023-11-23T20:35:57.525Z,5.92
2023-11-23T20:38:34.812Z,5.97
2023-11-23T20:41:08.393Z,5.75
2023-11-23T20:43:39.720Z,5.86
2023-11-23T20:46:13.083Z,5.80
2023-11-23T20:48:43.403Z,5.87
2023-11-23T20:51:15.040Z,5.85
2023-11-23T20:53:46.607Z,5.86
2023-11-23T20:56:18.251Z,5.96
2023-11-23T20:58:50.149Z,6.05
2023-11-23T21:01:22.626Z,5.80
2023-11-23T21:03:53.366Z,5.79
2023-11-23T21:06:26.498Z,5.78
2023-11-23T21:08:58.922Z,5.81
2023-11-23T21:11:29.364Z,5.75
2023-11-23T21:13:59.619Z,5.81
2023-11-23T21:16:30.680Z,5.74
2023-11-23T21:19:00.875Z,5.84
2023-11-23T21:21:31.044Z,5.99
2023-11-23T21:24:02.268Z,5.89
2023-11-23T21:26:33.723Z,5.89
2023-11-23T21:29:03.138Z,5.87
2023-11-23T21:31:33.420Z,5.96
2023-11-23T21:34:03.410Z,5.96
2023-11-23T21:36:35.841Z,5.80
2023-11-23T21:39:09.726Z,5.62
2023-11-23T21:41:39.868Z,5.75
2023-11-23T21:44:09.889Z,5.87
2023-11-23T21:46:40.452Z,5.96
2023-11-23T21:49:09.856Z,5.78
2023-11-23T21:51:39.468Z,5.84
2023-11-23T21:54:11.282Z,5.86
2023-11-23T21:56:40.312Z,5.85
2023-11-23T21:59:09.713Z,5.91
2023-11-23T22:01:38.407Z,5.84
2023-11-23T22:04:07.308Z,5.87
2023-11-23T22:06:35.735Z,5.91
2023-11-23T22:09:04.340Z,5.90
2023-11-23T22:11:33.874Z,6.17
2023-11-23T22:14:02.232Z,6.22
2023-11-23T22:16:30.663Z,6.32
2023-11-23T22:18:59.287Z,6.24
2023-11-23T22:21:28.214Z,6.19
2023-11-23T22:23:56.928Z,6.05
2023-11-23T22:26:25.619Z,6.09
2023-11-23T22:28:56.568Z,6.11
2023-11-23T22:31:27.503Z,5.94
2023-11-23T22:33:56.330Z,5.91
2023-11-23T22:36:25.537Z,5.98
2023-11-23T22:38:55.296Z,5.81
2023-11-23T22:41:24.824Z,5.82
2023-11-23T22:43:53.183Z,5.88
2023-11-23T22:46:23.514Z,5.88
2023-11-23T22:48:52.147Z,5.91
2023-11-23T22:51:20.600Z,5.89
2023-11-23T22:53:48.621Z,5.92
2023-11-23T22:56:17.152Z,5.82
2023-11-23T22:58:45.433Z,5.97
2023-11-23T23:01:14.854Z,6.01
2023-11-23T23:03:45.128Z,5.97
2023-11-23T23:06:13.720Z,5.90
2023-11-23T23:08:41.815Z,5.95
2023-11-23T23:11:11.481Z,5.91
2023-11-23T23:13:40.013Z,6.09
2023-11-23T23:16:08.696Z,6.07
2023-11-23T23:18:36.936Z,6.00
2023-11-23T23:21:06.945Z,5.87
2023-11-23T23:23:34.960Z,5.86
2023-11-23T23:26:03.936Z,5.85
2023-11-23T23:28:32.865Z,5.99
2023-11-23T23:31:01.711Z,5.89
2023-11-23T23:33:30.108Z,5.82
2023-11-23T23:35:59.301Z,5.79
2023-11-23T23:38:28.904Z,5.90
2023-11-23T23:40:56.937Z,5.91
2023-11-23T23:43:26.041Z,5.93
2023-11-23T23:45:54.809Z,5.93
2023-11-23T23:48:22.914Z,5.89
2023-11-23T23:50:51.709Z,5.98
2023-11-23T23:53:19.904Z,5.96
2023-11-23T23:55:49.842Z,5.85
2023-11-23T23:58:18.210Z,5.92
